sensor_id;sensor_type;location;lat;lon;timestamp;temperature;humidity
68648;SHT31;55632;51.962;16.116;2023-11-21T00:03:24;9.70;99.10
68648;SHT31;55632;51.962;16.116;2023-11-21T00:08:28;9.71;99.16
68648;SHT31;55632;51.962;16.116;2023-11-21T00:13:29;9.71;99.15
68648;SHT31;55632;51.962;16.116;2023-11-21T00:18:30;9.71;99.20
68648;SHT31;55632;51.962;16.116;2023-11-21T00:23:31;9.71;99.19
68648;SHT31;55632;51.962;16.116;2023-11-21T00:28:32;9.71;99.20
68648;SHT31;55632;51.962;16.116;2023-11-21T00:33:33;9.74;99.22
68648;SHT31;55632;51.962;16.116;2023-11-21T00:38:34;9.74;99.26
68648;SHT31;55632;51.962;16.116;2023-11-21T00:43:35;9.75;99.23
68648;SHT31;55632;51.962;16.116;2023-11-21T00:48:36;9.75;99.25
68648;SHT31;55632;51.962;16.116;2023-11-21T00:53:36;9.71;99.18
68648;SHT31;55632;51.962;16.116;2023-11-21T00:58:37;9.68;99.11
68648;SHT31;55632;51.962;16.116;2023-11-21T01:03:38;9.67;99.14
68648;SHT31;55632;51.962;16.116;2023-11-21T01:08:39;9.61;99.04
68648;SHT31;55632;51.962;16.116;2023-11-21T01:13:40;9.57;99.02
68648;SHT31;55632;51.962;16.116;2023-11-21T01:18:42;9.55;98.97
68648;SHT31;55632;51.962;16.116;2023-11-21T01:23:42;9.52;99.04
68648;SHT31;55632;51.962;16.116;2023-11-21T01:28:44;9.50;99.08
68648;SHT31;55632;51.962;16.116;2023-11-21T01:33:45;9.48;99.11
68648;SHT31;55632;51.962;16.116;2023-11-21T01:38:45;9.47;99.10
68648;SHT31;55632;51.962;16.116;2023-11-21T01:43:46;9.46;99.11
68648;SHT31;55632;51.962;16.116;2023-11-21T01:48:48;9.44;99.09
68648;SHT31;55632;51.962;16.116;2023-11-21T01:53:50;9.43;99.06
68648;SHT31;55632;51.962;16.116;2023-11-21T01:58:51;9.40;99.04
68648;SHT31;55632;51.962;16.116;2023-11-21T02:03:52;9.37;99.10
68648;SHT31;55632;51.962;16.116;2023-11-21T02:08:53;9.37;99.09
68648;SHT31;55632;51.962;16.116;2023-11-21T02:13:53;9.32;99.15
68648;SHT31;55632;51.962;16.116;2023-11-21T02:18:54;9.33;99.08
68648;SHT31;55632;51.962;16.116;2023-11-21T02:23:55;9.30;99.09
68648;SHT31;55632;51.962;16.116;2023-11-21T02:28:56;9.30;99.12
68648;SHT31;55632;51.962;16.116;2023-11-21T02:33:58;9.30;99.15
68648;SHT31;55632;51.962;16.116;2023-11-21T02:38:59;9.27;99.14
68648;SHT31;55632;51.962;16.116;2023-11-21T02:44:00;9.23;99.11
68648;SHT31;55632;51.962;16.116;2023-11-21T02:49:02;9.23;99.09
68648;SHT31;55632;51.962;16.116;2023-11-21T02:54:03;9.22;99.14
68648;SHT31;55632;51.962;16.116;2023-11-21T02:59:08;9.22;99.15
68648;SHT31;55632;51.962;16.116;2023-11-21T03:04:09;9.19;99.14
68648;SHT31;55632;51.962;16.116;2023-11-21T03:09:10;9.16;99.11
68648;SHT31;55632;51.962;16.116;2023-11-21T03:14:12;9.16;99.13
68648;SHT31;55632;51.962;16.116;2023-11-21T03:19:13;9.16;99.18
68648;SHT31;55632;51.962;16.116;2023-11-21T03:24:15;9.15;99.17
68648;SHT31;55632;51.962;16.116;2023-11-21T03:29:20;9.16;99.24
68648;SHT31;55632;51.962;16.116;2023-11-21T03:34:27;9.15;99.27
68648;SHT31;55632;51.962;16.116;2023-11-21T03:39:29;9.12;99.15
68648;SHT31;55632;51.962;16.116;2023-11-21T03:44:30;9.09;99.17
68648;SHT31;55632;51.962;16.116;2023-11-21T03:49:31;9.08;99.18
68648;SHT31;55632;51.962;16.116;2023-11-21T03:54:32;9.05;99.16
68648;SHT31;55632;51.962;16.116;2023-11-21T03:59:32;9.08;99.25
68648;SHT31;55632;51.962;16.116;2023-11-21T04:04:34;9.08;99.23
68648;SHT31;55632;51.962;16.116;2023-11-21T04:09:35;9.06;99.22
68648;SHT31;55632;51.962;16.116;2023-11-21T04:14:36;9.06;99.27
68648;SHT31;55632;51.962;16.116;2023-11-21T04:19:37;9.05;99.24
68648;SHT31;55632;51.962;16.116;2023-11-21T04:24:38;9.04;99.25
68648;SHT31;55632;51.962;16.116;2023-11-21T04:29:39;9.05;99.27
68648;SHT31;55632;51.962;16.116;2023-11-21T04:34:40;9.04;99.26
68648;SHT31;55632;51.962;16.116;2023-11-21T04:39:40;9.04;99.22
68648;SHT31;55632;51.962;16.116;2023-11-21T04:44:41;9.01;99.16
68648;SHT31;55632;51.962;16.116;2023-11-21T04:49:42;8.96;99.08
68648;SHT31;55632;51.962;16.116;2023-11-21T04:54:44;8.85;98.93
68648;SHT31;55632;51.962;16.116;2023-11-21T04:59:45;8.78;98.90
68648;SHT31;55632;51.962;16.116;2023-11-21T05:04:46;8.70;98.87
68648;SHT31;55632;51.962;16.116;2023-11-21T05:09:46;8.67;98.92
68648;SHT31;55632;51.962;16.116;2023-11-21T05:14:47;8.63;98.90
68648;SHT31;55632;51.962;16.116;2023-11-21T05:19:49;8.53;98.50
68648;SHT31;55632;51.962;16.116;2023-11-21T05:24:50;8.40;98.54
68648;SHT31;55632;51.962;16.116;2023-11-21T05:29:51;8.30;98.51
68648;SHT31;55632;51.962;16.116;2023-11-21T05:34:52;8.24;98.29
68648;SHT31;55632;51.962;16.116;2023-11-21T05:39:53;8.01;97.70
68648;SHT31;55632;51.962;16.116;2023-11-21T05:44:56;7.83;97.70
68648;SHT31;55632;51.962;16.116;2023-11-21T05:49:59;7.66;97.59
68648;SHT31;55632;51.962;16.116;2023-11-21T05:55:00;7.49;97.59
68648;SHT31;55632;51.962;16.116;2023-11-21T06:00:05;7.32;97.07
68648;SHT31;55632;51.962;16.116;2023-11-21T06:05:11;7.14;97.55
68648;SHT31;55632;51.962;16.116;2023-11-21T06:10:12;7.01;97.41
68648;SHT31;55632;51.962;16.116;2023-11-21T06:15:15;6.86;97.18
68648;SHT31;55632;51.962;16.116;2023-11-21T06:20:16;6.72;97.42
68648;SHT31;55632;51.962;16.116;2023-11-21T06:25:19;6.57;97.43
68648;SHT31;55632;51.962;16.116;2023-11-21T06:30:20;6.48;97.37
68648;SHT31;55632;51.962;16.116;2023-11-21T06:35:22;6.35;97.40
68648;SHT31;55632;51.962;16.116;2023-11-21T06:40:23;6.22;97.26
68648;SHT31;55632;51.962;16.116;2023-11-21T06:45:23;6.08;97.55
68648;SHT31;55632;51.962;16.116;2023-11-21T06:50:24;6.00;97.56
68648;SHT31;55632;51.962;16.116;2023-11-21T06:55:25;5.93;97.68
68648;SHT31;55632;51.962;16.116;2023-11-21T07:00:26;5.83;97.40
68648;SHT31;55632;51.962;16.116;2023-11-21T07:05:30;5.74;97.58
68648;SHT31;55632;51.962;16.116;2023-11-21T07:10:31;5.62;97.49
68648;SHT31;55632;51.962;16.116;2023-11-21T07:15:32;5.52;97.54
68648;SHT31;55632;51.962;16.116;2023-11-21T07:20:33;5.44;97.62
68648;SHT31;55632;51.962;16.116;2023-11-21T07:25:34;5.35;97.60
68648;SHT31;55632;51.962;16.116;2023-11-21T07:30:35;5.30;97.77
68648;SHT31;55632;51.962;16.116;2023-11-21T07:35:36;5.24;97.76
68648;SHT31;55632;51.962;16.116;2023-11-21T07:40:37;5.14;97.73
68648;SHT31;55632;51.962;16.116;2023-11-21T07:45:38;5.06;97.86
68648;SHT31;55632;51.962;16.116;2023-11-21T07:50:38;4.96;97.62
68648;SHT31;55632;51.962;16.116;2023-11-21T07:55:39;4.86;97.70
68648;SHT31;55632;51.962;16.116;2023-11-21T08:00:40;4.76;97.78
68648;SHT31;55632;51.962;16.116;2023-11-21T08:05:41;4.69;97.02
68648;SHT31;55632;51.962;16.116;2023-11-21T08:10:42;4.58;97.17
68648;SHT31;55632;51.962;16.116;2023-11-21T08:15:43;4.51;97.34
68648;SHT31;55632;51.962;16.116;2023-11-21T08:20:46;4.45;97.24
68648;SHT31;55632;51.962;16.116;2023-11-21T08:25:50;4.41;97.36
68648;SHT31;55632;51.962;16.116;2023-11-21T08:30:53;4.34;97.54
68648;SHT31;55632;51.962;16.116;2023-11-21T08:35:57;4.27;97.41
68648;SHT31;55632;51.962;16.116;2023-11-21T08:40:58;4.23;97.08
68648;SHT31;55632;51.962;16.116;2023-11-21T08:45:59;4.13;97.23
68648;SHT31;55632;51.962;16.116;2023-11-21T08:51:00;4.05;97.31
68648;SHT31;55632;51.962;16.116;2023-11-21T08:56:00;3.99;97.51
68648;SHT31;55632;51.962;16.116;2023-11-21T09:01:01;3.96;97.20
68648;SHT31;55632;51.962;16.116;2023-11-21T09:06:02;3.92;97.47
68648;SHT31;55632;51.962;16.116;2023-11-21T09:11:04;3.89;97.40
68648;SHT31;55632;51.962;16.116;2023-11-21T09:16:06;3.82;97.16
68648;SHT31;55632;51.962;16.116;2023-11-21T09:21:07;3.82;97.64
68648;SHT31;55632;51.962;16.116;2023-11-21T09:26:09;3.78;97.62
68648;SHT31;55632;51.962;16.116;2023-11-21T09:31:10;3.75;97.37
68648;SHT31;55632;51.962;16.116;2023-11-21T09:36:12;3.71;97.12
68648;SHT31;55632;51.962;16.116;2023-11-21T09:41:21;3.62;97.20
68648;SHT31;55632;51.962;16.116;2023-11-21T09:46:25;3.60;97.09
68648;SHT31;55632;51.962;16.116;2023-11-21T09:51:29;3.58;97.19
68648;SHT31;55632;51.962;16.116;2023-11-21T09:56:33;3.60;97.47
68648;SHT31;55632;51.962;16.116;2023-11-21T10:01:35;3.57;97.83
68648;SHT31;55632;51.962;16.116;2023-11-21T10:06:36;3.55;97.69
68648;SHT31;55632;51.962;16.116;2023-11-21T10:11:41;3.48;97.24
68648;SHT31;55632;51.962;16.116;2023-11-21T10:16:44;3.47;97.30
68648;SHT31;55632;51.962;16.116;2023-11-21T10:21:47;3.43;97.31
68648;SHT31;55632;51.962;16.116;2023-11-21T10:26:48;3.40;97.65
68648;SHT31;55632;51.962;16.116;2023-11-21T10:31:50;3.38;97.65
68648;SHT31;55632;51.962;16.116;2023-11-21T10:36:51;3.40;97.70
68648;SHT31;55632;51.962;16.116;2023-11-21T10:41:52;3.38;97.72
68648;SHT31;55632;51.962;16.116;2023-11-21T10:46:54;3.40;97.88
68648;SHT31;55632;51.962;16.116;2023-11-21T10:51:59;3.37;97.76
68648;SHT31;55632;51.962;16.116;2023-11-21T10:57:00;3.37;98.08
68648;SHT31;55632;51.962;16.116;2023-11-21T11:02:18;3.38;98.01
68648;SHT31;55632;51.962;16.116;2023-11-21T11:07:25;3.37;97.89
68648;SHT31;55632;51.962;16.116;2023-11-21T11:12:27;3.36;98.03
68648;SHT31;55632;51.962;16.116;2023-11-21T11:17:28;3.28;97.86
68648;SHT31;55632;51.962;16.116;2023-11-21T11:22:37;3.26;97.88
68648;SHT31;55632;51.962;16.116;2023-11-21T11:27:54;3.22;97.89
68648;SHT31;55632;51.962;16.116;2023-11-21T11:33:31;3.17;97.81
68648;SHT31;55632;51.962;16.116;2023-11-21T11:38:34;3.13;97.56
68648;SHT31;55632;51.962;16.116;2023-11-21T11:43:38;3.13;97.63
68648;SHT31;55632;51.962;16.116;2023-11-21T11:48:45;3.15;97.72
68648;SHT31;55632;51.962;16.116;2023-11-21T11:53:46;3.12;97.91
68648;SHT31;55632;51.962;16.116;2023-11-21T11:58:48;3.12;98.03
68648;SHT31;55632;51.962;16.116;2023-11-21T12:14:20;3.12;98.01
68648;SHT31;55632;51.962;16.116;2023-11-21T12:19:21;3.09;97.93
68648;SHT31;55632;51.962;16.116;2023-11-21T12:24:21;3.03;98.03
68648;SHT31;55632;51.962;16.116;2023-11-21T12:29:24;2.99;97.71
68648;SHT31;55632;51.962;16.116;2023-11-21T12:34:25;2.88;97.57
68648;SHT31;55632;51.962;16.116;2023-11-21T12:39:26;2.82;97.70
68648;SHT31;55632;51.962;16.116;2023-11-21T12:44:27;2.81;97.75
68648;SHT31;55632;51.962;16.116;2023-11-21T12:49:28;2.74;97.90
68648;SHT31;55632;51.962;16.116;2023-11-21T12:54:29;2.71;97.89
68648;SHT31;55632;51.962;16.116;2023-11-21T12:59:31;2.67;97.78
68648;SHT31;55632;51.962;16.116;2023-11-21T13:04:32;2.64;97.81
68648;SHT31;55632;51.962;16.116;2023-11-21T13:09:35;2.58;97.84
68648;SHT31;55632;51.962;16.116;2023-11-21T13:14:35;2.54;98.11
68648;SHT31;55632;51.962;16.116;2023-11-21T13:19:36;2.48;98.01
68648;SHT31;55632;51.962;16.116;2023-11-21T13:24:37;2.44;97.73
68648;SHT31;55632;51.962;16.116;2023-11-21T13:29:38;2.39;97.78
68648;SHT31;55632;51.962;16.116;2023-11-21T13:34:38;2.34;98.11
68648;SHT31;55632;51.962;16.116;2023-11-21T13:39:39;2.32;98.17
68648;SHT31;55632;51.962;16.116;2023-11-21T13:44:45;2.29;97.81
68648;SHT31;55632;51.962;16.116;2023-11-21T13:49:48;2.22;97.96
68648;SHT31;55632;51.962;16.116;2023-11-21T13:54:49;2.19;97.95
68648;SHT31;55632;51.962;16.116;2023-11-21T13:59:51;2.19;97.72
68648;SHT31;55632;51.962;16.116;2023-11-21T14:04:52;2.13;97.87
68648;SHT31;55632;51.962;16.116;2023-11-21T14:09:56;2.11;97.71
68648;SHT31;55632;51.962;16.116;2023-11-21T14:14:59;2.02;97.59
68648;SHT31;55632;51.962;16.116;2023-11-21T14:20:01;1.95;97.59
68648;SHT31;55632;51.962;16.116;2023-11-21T14:25:06;1.91;97.56
68648;SHT31;55632;51.962;16.116;2023-11-21T14:30:07;1.84;97.67
68648;SHT31;55632;51.962;16.116;2023-11-21T14:35:08;1.82;97.98
68648;SHT31;55632;51.962;16.116;2023-11-21T14:40:09;1.79;98.14
68648;SHT31;55632;51.962;16.116;2023-11-21T14:45:10;1.75;98.00
68648;SHT31;55632;51.962;16.116;2023-11-21T14:50:12;1.68;97.76
68648;SHT31;55632;51.962;16.116;2023-11-21T14:55:33;1.63;97.78
68648;SHT31;55632;51.962;16.116;2023-11-21T15:00:43;1.59;98.03
68648;SHT31;55632;51.962;16.116;2023-11-21T15:05:48;1.57;98.17
68648;SHT31;55632;51.962;16.116;2023-11-21T15:10:49;1.54;98.22
68648;SHT31;55632;51.962;16.116;2023-11-21T15:15:54;1.47;98.20
68648;SHT31;55632;51.962;16.116;2023-11-21T15:20:55;1.43;98.32
68648;SHT31;55632;51.962;16.116;2023-11-21T15:25:56;1.40;98.18
68648;SHT31;55632;51.962;16.116;2023-11-21T15:30:58;1.33;98.17
68648;SHT31;55632;51.962;16.116;2023-11-21T15:35:58;1.32;98.25
68648;SHT31;55632;51.962;16.116;2023-11-21T15:40:59;1.26;97.74
68648;SHT31;55632;51.962;16.116;2023-11-21T15:46:00;1.21;97.94
68648;SHT31;55632;51.962;16.116;2023-11-21T15:51:06;1.16;98.00
68648;SHT31;55632;51.962;16.116;2023-11-21T15:56:13;1.15;97.98
68648;SHT31;55632;51.962;16.116;2023-11-21T16:01:13;1.14;98.14
68648;SHT31;55632;51.962;16.116;2023-11-21T16:06:15;1.12;97.94
68648;SHT31;55632;51.962;16.116;2023-11-21T16:11:16;1.09;98.26
68648;SHT31;55632;51.962;16.116;2023-11-21T16:16:20;1.07;98.40
68648;SHT31;55632;51.962;16.116;2023-11-21T16:21:21;1.08;98.35
68648;SHT31;55632;51.962;16.116;2023-11-21T16:26:23;1.05;98.24
68648;SHT31;55632;51.962;16.116;2023-11-21T16:31:24;1.02;98.54
68648;SHT31;55632;51.962;16.116;2023-11-21T16:36:25;1.04;98.41
68648;SHT31;55632;51.962;16.116;2023-11-21T16:41:26;1.02;98.49
68648;SHT31;55632;51.962;16.116;2023-11-21T16:46:27;1.01;98.39
68648;SHT31;55632;51.962;16.116;2023-11-21T16:51:28;0.97;98.39
68648;SHT31;55632;51.962;16.116;2023-11-21T16:56:28;0.95;98.58
68648;SHT31;55632;51.962;16.116;2023-11-21T17:01:30;0.91;98.75
68648;SHT31;55632;51.962;16.116;2023-11-21T17:06:31;0.92;98.63
68648;SHT31;55632;51.962;16.116;2023-11-21T17:11:32;0.91;98.77
68648;SHT31;55632;51.962;16.116;2023-11-21T17:16:32;0.90;98.78
68648;SHT31;55632;51.962;16.116;2023-11-21T17:21:33;0.85;98.88
68648;SHT31;55632;51.962;16.116;2023-11-21T17:26:34;0.85;98.82
68648;SHT31;55632;51.962;16.116;2023-11-21T17:31:36;0.83;98.88
68648;SHT31;55632;51.962;16.116;2023-11-21T17:36:40;0.80;98.69
68648;SHT31;55632;51.962;16.116;2023-11-21T17:41:41;0.81;98.79
68648;SHT31;55632;51.962;16.116;2023-11-21T17:46:42;0.80;98.93
68648;SHT31;55632;51.962;16.116;2023-11-21T17:51:43;0.81;99.02
68648;SHT31;55632;51.962;16.116;2023-11-21T17:56:43;0.79;98.96
68648;SHT31;55632;51.962;16.116;2023-11-21T18:01:46;0.79;99.11
68648;SHT31;55632;51.962;16.116;2023-11-21T18:06:47;0.79;99.08
68648;SHT31;55632;51.962;16.116;2023-11-21T18:11:47;0.77;99.07
68648;SHT31;55632;51.962;16.116;2023-11-21T18:16:49;0.74;99.14
68648;SHT31;55632;51.962;16.116;2023-11-21T18:21:50;0.74;99.00
68648;SHT31;55632;51.962;16.116;2023-11-21T18:26:51;0.76;99.09
68648;SHT31;55632;51.962;16.116;2023-11-21T18:31:51;0.74;99.15
68648;SHT31;55632;51.962;16.116;2023-11-21T18:36:52;0.74;99.21
68648;SHT31;55632;51.962;16.116;2023-11-21T18:41:53;0.73;99.21
68648;SHT31;55632;51.962;16.116;2023-11-21T18:46:55;0.76;99.22
68648;SHT31;55632;51.962;16.116;2023-11-21T18:51:56;0.72;99.17
68648;SHT31;55632;51.962;16.116;2023-11-21T18:56:58;0.73;99.18
68648;SHT31;55632;51.962;16.116;2023-11-21T19:01:59;0.72;99.24
68648;SHT31;55632;51.962;16.116;2023-11-21T19:07:00;0.73;99.31
68648;SHT31;55632;51.962;16.116;2023-11-21T19:12:03;0.70;99.34
68648;SHT31;55632;51.962;16.116;2023-11-21T19:17:04;0.76;99.36
68648;SHT31;55632;51.962;16.116;2023-11-21T19:22:05;0.74;99.26
68648;SHT31;55632;51.962;16.116;2023-11-21T19:27:06;0.74;99.29
68648;SHT31;55632;51.962;16.116;2023-11-21T19:32:06;0.73;99.28
68648;SHT31;55632;51.962;16.116;2023-11-21T19:37:10;0.74;99.23
68648;SHT31;55632;51.962;16.116;2023-11-21T19:42:15;0.73;99.25
68648;SHT31;55632;51.962;16.116;2023-11-21T19:47:15;0.73;99.21
68648;SHT31;55632;51.962;16.116;2023-11-21T19:52:16;0.70;99.23
68648;SHT31;55632;51.962;16.116;2023-11-21T19:57:17;0.70;99.11
68648;SHT31;55632;51.962;16.116;2023-11-21T20:02:18;0.69;99.13
68648;SHT31;55632;51.962;16.116;2023-11-21T20:07:19;0.72;99.09
68648;SHT31;55632;51.962;16.116;2023-11-21T20:12:21;0.67;98.95
68648;SHT31;55632;51.962;16.116;2023-11-21T20:17:22;0.66;99.01
68648;SHT31;55632;51.962;16.116;2023-11-21T20:22:24;0.66;99.07
68648;SHT31;55632;51.962;16.116;2023-11-21T20:27:25;0.67;99.02
68648;SHT31;55632;51.962;16.116;2023-11-21T20:32:27;0.64;98.93
68648;SHT31;55632;51.962;16.116;2023-11-21T20:37:27;0.64;99.11
68648;SHT31;55632;51.962;16.116;2023-11-21T20:42:29;0.63;99.08
68648;SHT31;55632;51.962;16.116;2023-11-21T20:47:29;0.64;99.09
68648;SHT31;55632;51.962;16.116;2023-11-21T20:52:33;0.67;99.17
68648;SHT31;55632;51.962;16.116;2023-11-21T20:57:36;0.66;99.15
68648;SHT31;55632;51.962;16.116;2023-11-21T21:02:37;0.67;99.22
68648;SHT31;55632;51.962;16.116;2023-11-21T21:07:39;0.64;99.29
68648;SHT31;55632;51.962;16.116;2023-11-21T21:12:39;0.64;99.20
68648;SHT31;55632;51.962;16.116;2023-11-21T21:17:41;0.69;99.28
68648;SHT31;55632;51.962;16.116;2023-11-21T21:22:44;0.67;99.27
68648;SHT31;55632;51.962;16.116;2023-11-21T21:27:45;0.69;99.29
68648;SHT31;55632;51.962;16.116;2023-11-21T21:32:45;0.67;99.18
68648;SHT31;55632;51.962;16.116;2023-11-21T21:37:47;0.66;99.11
68648;SHT31;55632;51.962;16.116;2023-11-21T21:42:49;0.67;99.07
68648;SHT31;55632;51.962;16.116;2023-11-21T21:47:50;0.63;99.06
68648;SHT31;55632;51.962;16.116;2023-11-21T21:52:51;0.63;99.05
68648;SHT31;55632;51.962;16.116;2023-11-21T21:57:53;0.62;99.03
68648;SHT31;55632;51.962;16.116;2023-11-21T22:02:54;0.60;98.88
68648;SHT31;55632;51.962;16.116;2023-11-21T22:07:56;0.60;98.94
68648;SHT31;55632;51.962;16.116;2023-11-21T22:12:57;0.57;98.89
68648;SHT31;55632;51.962;16.116;2023-11-21T22:17:57;0.57;98.90
68648;SHT31;55632;51.962;16.116;2023-11-21T22:22:59;0.57;99.02
68648;SHT31;55632;51.962;16.116;2023-11-21T22:28:00;0.57;98.95
68648;SHT31;55632;51.962;16.116;2023-11-21T22:33:00;0.56;98.96
68648;SHT31;55632;51.962;16.116;2023-11-21T22:38:02;0.55;98.89
68648;SHT31;55632;51.962;16.116;2023-11-21T22:43:02;0.55;98.84
68648;SHT31;55632;51.962;16.116;2023-11-21T22:48:03;0.52;98.82
68648;SHT31;55632;51.962;16.116;2023-11-21T22:53:05;0.48;98.77
68648;SHT31;55632;51.962;16.116;2023-11-21T22:58:06;0.52;98.77
68648;SHT31;55632;51.962;16.116;2023-11-21T23:03:07;0.49;98.68
68648;SHT31;55632;51.962;16.116;2023-11-21T23:08:08;0.49;98.51
68648;SHT31;55632;51.962;16.116;2023-11-21T23:13:10;0.46;98.50
68648;SHT31;55632;51.962;16.116;2023-11-21T23:18:10;0.44;98.50
68648;SHT31;55632;51.962;16.116;2023-11-21T23:23:11;0.39;98.29
68648;SHT31;55632;51.962;16.116;2023-11-21T23:28:12;0.38;98.43
68648;SHT31;55632;51.962;16.116;2023-11-21T23:33:13;0.33;97.90
68648;SHT31;55632;51.962;16.116;2023-11-21T23:38:15;0.29;97.89
68648;SHT31;55632;51.962;16.116;2023-11-21T23:43:16;0.26;98.14
68648;SHT31;55632;51.962;16.116;2023-11-21T23:48:20;0.28;98.21
68648;SHT31;55632;51.962;16.116;2023-11-21T23:53:21;0.24;98.11
68648;SHT31;55632;51.962;16.116;2023-11-21T23:58:22;0.26;98.36
